createdAt,value
2018-12-20T00:03:42.332Z,4.50
2018-12-20T00:08:43.222Z,4.50
2018-12-20T00:13:44.302Z,4.50
2018-12-20T00:18:45.301Z,4.60
2018-12-20T00:23:46.089Z,4.50
2018-12-20T00:28:47.650Z,4.50
2018-12-20T00:33:48.847Z,4.60
2018-12-20T00:38:49.939Z,4.60
2018-12-20T00:43:50.973Z,4.50
2018-12-20T00:48:53.777Z,4.50
2018-12-20T00:53:54.966Z,4.50
2018-12-20T00:58:56.174Z,4.50
2018-12-20T01:03:57.056Z,4.50
2018-12-20T01:08:58.537Z,4.50
2018-12-20T01:14:17.885Z,4.50
2018-12-20T01:19:24.283Z,4.50
2018-12-20T01:24:25.290Z,4.50
2018-12-20T01:29:27.109Z,4.50
2018-12-20T01:34:28.444Z,4.50
2018-12-20T01:39:29.429Z,4.50
2018-12-20T01:44:30.722Z,4.50
2018-12-20T01:49:31.843Z,4.50
2018-12-20T01:54:32.765Z,4.50
2018-12-20T01:59:33.772Z,4.50
2018-12-20T02:04:34.819Z,4.40
2018-12-20T02:09:35.524Z,4.40
2018-12-20T02:14:36.518Z,4.30
2018-12-20T02:19:37.433Z,4.30
2018-12-20T02:24:38.378Z,4.20
2018-12-20T02:29:39.200Z,4.20
2018-12-20T02:34:40.330Z,4.10
2018-12-20T02:39:41.248Z,4.00
2018-12-20T02:44:42.171Z,4.00
2018-12-20T02:49:43.434Z,4.00
2018-12-20T02:54:44.400Z,3.90
2018-12-20T02:59:45.205Z,3.90
2018-12-20T03:04:46.394Z,3.80
2018-12-20T03:09:47.065Z,3.70
2018-12-20T03:14:48.054Z,3.70
2018-12-20T03:19:49.092Z,3.70
2018-12-20T03:24:50.060Z,3.70
2018-12-20T03:29:50.918Z,3.70
2018-12-20T03:34:52.841Z,3.80
2018-12-20T03:39:53.821Z,3.80
2018-12-20T03:44:54.799Z,3.70
2018-12-20T03:49:56.036Z,3.80
2018-12-20T03:54:57.065Z,3.70
2018-12-20T03:59:58.187Z,3.70
2018-12-20T04:04:59.059Z,3.70
2018-12-20T04:10:01.095Z,3.60
2018-12-20T04:31:43.538Z,3.10
2018-12-20T04:53:27.040Z,2.70
2018-12-20T04:58:31.395Z,2.80
2018-12-20T05:03:33.421Z,2.80
2018-12-20T05:08:34.355Z,2.80
2018-12-20T05:13:35.407Z,2.90
2018-12-20T05:18:36.269Z,2.90
2018-12-20T05:23:37.316Z,2.90
2018-12-20T05:28:38.165Z,3.00
2018-12-20T05:33:38.824Z,2.90
2018-12-20T05:38:39.638Z,3.00
2018-12-20T05:43:40.385Z,3.00
2018-12-20T05:48:41.149Z,3.00
2018-12-20T05:53:42.127Z,3.00
2018-12-20T05:58:44.571Z,3.00
2018-12-20T06:03:45.848Z,3.00
2018-12-20T06:08:46.744Z,3.10
2018-12-20T06:13:47.490Z,3.10
2018-12-20T06:18:48.445Z,3.10
2018-12-20T06:23:49.246Z,3.20
2018-12-20T06:28:50.045Z,3.20
2018-12-20T06:33:50.956Z,3.20
2018-12-20T06:38:51.733Z,3.20
2018-12-20T06:43:52.333Z,3.20
2018-12-20T06:48:53.075Z,3.30
2018-12-20T06:53:53.906Z,3.30
2018-12-20T06:58:54.553Z,3.30
2018-12-20T07:03:55.360Z,3.30
2018-12-20T07:08:56.183Z,3.30
2018-12-20T07:13:56.824Z,3.30
2018-12-20T07:18:57.636Z,3.40
2018-12-20T07:23:58.417Z,3.40
2018-12-20T07:28:59.182Z,3.40
2018-12-20T07:33:59.962Z,3.50
2018-12-20T07:39:00.763Z,3.50
2018-12-20T07:44:03.348Z,3.60
2018-12-20T07:49:04.143Z,3.60
2018-12-20T07:54:04.974Z,3.70
2018-12-20T07:59:05.883Z,3.70
2018-12-20T08:04:06.672Z,3.70
2018-12-20T08:09:08.480Z,3.80
2018-12-20T08:14:09.352Z,3.90
2018-12-20T08:19:10.047Z,4.00
2018-12-20T08:24:10.784Z,4.20
2018-12-20T08:29:11.595Z,4.40
2018-12-20T08:34:12.385Z,4.90
2018-12-20T08:39:13.201Z,5.40
2018-12-20T08:44:14.039Z,5.70
2018-12-20T08:49:14.874Z,5.80
2018-12-20T08:54:15.708Z,5.70
2018-12-20T08:59:16.447Z,5.70
2018-12-20T09:04:17.219Z,5.60
2018-12-20T09:09:18.054Z,5.50
2018-12-20T09:14:18.836Z,5.50
2018-12-20T09:19:19.673Z,5.50
2018-12-20T09:24:20.336Z,5.50
2018-12-20T09:29:22.150Z,5.60
2018-12-20T09:34:22.839Z,5.60
2018-12-20T09:39:23.784Z,5.70
2018-12-20T09:44:24.421Z,5.80
2018-12-20T09:49:26.301Z,5.90
2018-12-20T09:54:26.920Z,6.00
2018-12-20T09:59:27.711Z,6.20
2018-12-20T10:04:28.571Z,6.30
2018-12-20T10:09:31.430Z,6.40
2018-12-20T10:14:32.100Z,6.60
2018-12-20T10:19:33.406Z,6.60
2018-12-20T10:24:34.298Z,6.80
2018-12-20T10:29:35.342Z,7.10
2018-12-20T10:34:36.126Z,7.20
2018-12-20T10:39:36.842Z,7.20
2018-12-20T10:44:37.637Z,7.10
2018-12-20T10:49:38.425Z,7.10
2018-12-20T10:54:39.198Z,7.20
2018-12-20T10:59:40.511Z,7.20
2018-12-20T11:04:46.478Z,7.30
2018-12-20T11:09:52.376Z,7.50
2018-12-20T11:14:53.412Z,7.50
2018-12-20T11:19:54.273Z,7.50
2018-12-20T11:24:55.378Z,7.50
2018-12-20T11:29:56.153Z,7.50
2018-12-20T11:34:56.988Z,7.40
2018-12-20T11:39:59.768Z,7.30
2018-12-20T11:45:00.689Z,7.30
2018-12-20T11:50:06.793Z,7.30
2018-12-20T11:55:07.550Z,7.20
2018-12-20T12:00:10.391Z,7.20
2018-12-20T12:05:11.235Z,7.20
2018-12-20T12:10:12.018Z,7.20
2018-12-20T12:15:13.824Z,7.20
2018-12-20T12:20:14.616Z,7.20
2018-12-20T12:25:15.348Z,7.20
2018-12-20T12:30:16.195Z,7.20
2018-12-20T12:35:18.007Z,7.20
2018-12-20T12:40:19.005Z,7.10
2018-12-20T12:45:19.789Z,7.10
2018-12-20T12:50:21.968Z,7.10
2018-12-20T12:55:23.516Z,7.10
2018-12-20T13:00:24.540Z,7.10
2018-12-20T13:05:25.276Z,7.10
2018-12-20T13:10:26.079Z,7.10
2018-12-20T13:20:47.256Z,7.10
2018-12-20T13:25:47.954Z,7.10
2018-12-20T13:30:48.717Z,7.10
2018-12-20T13:35:49.510Z,7.00
2018-12-20T13:40:50.329Z,7.10
2018-12-20T13:45:51.144Z,7.20
2018-12-20T13:50:52.046Z,7.30
2018-12-20T13:55:52.950Z,7.50
2018-12-20T14:00:53.817Z,7.60
2018-12-20T14:05:54.562Z,7.60
2018-12-20T14:10:55.296Z,7.70
2018-12-20T14:15:56.087Z,7.70
2018-12-20T14:20:56.916Z,7.70
2018-12-20T14:25:58.194Z,7.70
2018-12-20T14:30:58.873Z,7.70
2018-12-20T14:36:00.520Z,7.70
2018-12-20T14:41:01.649Z,7.70
2018-12-20T14:46:02.525Z,7.70
2018-12-20T14:51:03.282Z,7.60
2018-12-20T14:56:04.250Z,7.60
2018-12-20T15:01:05.047Z,7.60
2018-12-20T15:06:05.946Z,7.60
2018-12-20T15:11:06.718Z,7.60
2018-12-20T15:16:07.488Z,7.50
2018-12-20T15:21:08.284Z,7.50
2018-12-20T15:26:09.185Z,7.50
2018-12-20T15:31:09.978Z,7.50
2018-12-20T15:36:10.816Z,7.50
2018-12-20T15:41:12.511Z,7.40
2018-12-20T15:46:13.736Z,7.40
2018-12-20T15:51:14.659Z,7.30
2018-12-20T15:56:15.463Z,7.30
2018-12-20T16:01:16.276Z,7.30
2018-12-20T16:06:17.139Z,7.20
2018-12-20T16:11:17.988Z,7.20
2018-12-20T16:16:18.739Z,7.10
2018-12-20T16:21:19.580Z,7.00
2018-12-20T16:26:20.406Z,7.00
2018-12-20T16:31:21.280Z,6.90
2018-12-20T16:58:43.750Z,6.40
2018-12-20T17:03:44.592Z,6.40
2018-12-20T17:08:48.282Z,6.30
2018-12-20T17:24:51.509Z,6.20
2018-12-20T17:29:55.234Z,6.10
2018-12-20T17:34:56.071Z,6.00
2018-12-20T17:39:57.111Z,5.90
2018-12-20T17:44:57.941Z,5.80
2018-12-20T17:49:59.789Z,5.70
2018-12-20T17:55:00.613Z,5.70
2018-12-20T18:00:01.328Z,5.70
2018-12-20T18:05:06.837Z,5.70
2018-12-20T18:10:08.444Z,5.70
2018-12-20T18:15:10.775Z,5.70
2018-12-20T18:20:12.103Z,5.70
2018-12-20T18:25:12.971Z,5.70
2018-12-20T18:30:13.807Z,5.70
2018-12-20T18:35:15.062Z,5.70
2018-12-20T18:40:16.160Z,5.70
2018-12-20T18:45:16.951Z,5.70
2018-12-20T18:50:17.763Z,5.70
2018-12-20T19:00:53.232Z,5.70
2018-12-20T19:05:55.221Z,5.80
2018-12-20T19:10:56.125Z,5.80
2018-12-20T19:15:56.926Z,5.90
2018-12-20T19:20:58.635Z,6.00
2018-12-20T19:25:59.424Z,6.00
2018-12-20T19:31:00.214Z,6.10
2018-12-20T19:36:00.897Z,6.10
2018-12-20T19:41:01.628Z,6.10
2018-12-20T19:46:02.379Z,6.10
2018-12-20T19:51:03.363Z,6.20
2018-12-20T19:56:04.243Z,6.20
2018-12-20T20:01:05.069Z,6.20
2018-12-20T20:06:05.874Z,6.20
2018-12-20T20:11:06.586Z,6.20
2018-12-20T20:16:07.469Z,6.20
2018-12-20T20:21:08.288Z,6.20
2018-12-20T20:26:09.218Z,6.20
2018-12-20T20:31:10.977Z,6.20
2018-12-20T20:36:11.776Z,6.20
2018-12-20T20:41:12.653Z,6.20
2018-12-20T20:46:13.613Z,6.20
2018-12-20T20:51:15.108Z,6.10
2018-12-20T20:56:15.925Z,6.10
2018-12-20T21:01:17.071Z,6.10
2018-12-20T21:06:18.913Z,6.10
2018-12-20T21:11:19.835Z,6.10
2018-12-20T21:16:20.539Z,6.00
2018-12-20T21:21:21.414Z,6.00
2018-12-20T21:26:22.473Z,6.00
2018-12-20T21:31:23.432Z,6.00
2018-12-20T21:36:24.181Z,5.90
2018-12-20T21:41:24.852Z,5.90
2018-12-20T21:46:25.703Z,5.80
2018-12-20T21:51:26.560Z,5.80
2018-12-20T21:56:27.427Z,5.80
2018-12-20T22:01:28.324Z,5.80
2018-12-20T22:06:29.210Z,5.80
2018-12-20T22:11:30.028Z,5.70
2018-12-20T22:16:37.016Z,5.70
2018-12-20T22:21:37.699Z,5.50
2018-12-20T22:26:38.403Z,5.40
2018-12-20T22:31:39.752Z,5.30
2018-12-20T22:36:40.576Z,5.40
2018-12-20T22:41:41.423Z,5.40
2018-12-20T22:46:42.265Z,5.40
2018-12-20T22:51:43.114Z,5.40
2018-12-20T22:56:44.023Z,5.40
2018-12-20T23:01:45.015Z,5.40
2018-12-20T23:06:45.921Z,5.30
2018-12-20T23:11:47.192Z,5.30
2018-12-20T23:16:53.698Z,5.30
2018-12-20T23:21:52.599Z,5.30
2018-12-20T23:26:53.330Z,5.30
2018-12-20T23:31:54.055Z,5.30
2018-12-20T23:36:55.006Z,5.40
2018-12-20T23:41:55.826Z,5.30
2018-12-20T23:46:56.735Z,5.40
2018-12-20T23:51:57.660Z,5.40
2018-12-20T23:56:58.956Z,5.40
